Time;durP1;ratioP1;P1;durP2;ratioP2;P2;SDS_P1;SDS_P2;PMS_P1;PMS_P2;Temp;Humidity;BMP_temperature;BMP_pressure;BME280_temperature;BME280_humidity;BME280_pressure;Samples;Min_cycle;Max_cycle;Signal;HPM_P1;HPM_P2
2022/04/09 00:00:17;;;;;;;;;;;;;;;;;;5107093;28;1975;-78
2022/04/09 00:02:42;;;;;;;;;;;;;;;;;;5108855;27;1190;-80
2022/04/09 00:05:09;;;;;;;;;;;;;;;;;;5108622;28;1219;-79
2022/04/09 00:07:34;;;;;;;;;;;;;;;;;;5108221;28;1196;-79
2022/04/09 00:10:00;;;;;;;;;;;;;;;;;;5102936;28;1188;-79
2022/04/09 00:12:25;;;;;;;;;;;;;;;;;;5118797;28;1196;-80
2022/04/09 00:14:50;;;;;;;;;;;;;;;;;;5103706;28;1156;-79
2022/04/09 00:17:16;;;;;;;;;;;;;;;;;;5120881;28;1179;-79
2022/04/09 00:19:43;;;;;;;;;;;;;;;;;;5109316;28;1894;-78
2022/04/09 00:22:10;;;;;;;;;;;;;;;;;;5092228;28;1380;-78
2022/04/09 00:24:36;;;;;;;;;;;;;;;;;;5098628;28;1258;-78
2022/04/09 00:27:01;;;;;;;;;;;;;;;;;;5108401;28;1138;-79
2022/04/09 00:29:27;;;;;;;;;;;;;;;;;;5105142;28;1232;-78
2022/04/09 00:31:52;;;;;;;;;;;;;;;;;;5087439;28;1454;-79
2022/04/09 00:34:17;;;;;;;;;;;;;;;;;;5094753;28;1364;-80
2022/04/09 00:36:43;;;;;;;;;;;;;;;;;;5120974;27;1198;-79
2022/04/09 00:39:08;;;;;;;;;;;;;;;;;;5121852;28;1362;-78
2022/04/09 00:41:34;;;;;;;;;;;;;;;;;;5107829;28;1961;-79
2022/04/09 00:43:59;;;;;;;;;;;;;;;;;;5125975;27;1202;-78
2022/04/09 00:46:25;;;;;;;;;;;;;;;;;;5112187;28;1156;-80
2022/04/09 00:48:51;;;;;;;;;;;;;;;;;;5107442;28;1243;-79
2022/04/09 00:51:18;;;;;;;;;;;;;;;;;;5107454;28;1393;-78
2022/04/09 00:53:47;;;;;;;;;;;;;;;;;;5123792;28;1214;-78
2022/04/09 00:56:13;;;;;;;;;;;;;;;;;;5123859;27;1435;-79
2022/04/09 00:58:39;;;;;;;;;;;;;;;;;;5114523;27;1199;-80
2022/04/09 01:01:04;;;;;;;;;;;;;;;;;;5094473;27;1909;-79
2022/04/09 01:03:29;;;;;;;;;;;;;;;;;;5110495;27;1234;-78
2022/04/09 01:05:55;;;;;;;;;;;;;;;;;;5098414;27;1379;-79
2022/04/09 01:08:20;;;;;;;;;;;;;;;;;;5112706;27;1297;-78
2022/04/09 01:10:47;;;;;;;;;;;;;;;;;;5118083;27;1188;-79
2022/04/09 01:13:14;;;;;;;;;;;;;;;;;;5119922;27;1107;-80
2022/04/09 01:15:39;;;;;;;;;;;;;;;;;;5117273;27;1261;-80
2022/04/09 01:18:05;;;;;;;;;;;;;;;;;;5108057;27;1295;-80
2022/04/09 01:20:30;;;;;;;;;;;;;;;;;;5114637;27;1909;-81
2022/04/09 01:22:55;;;;;;;;;;;;;;;;;;5123723;27;1311;-80
2022/04/09 01:25:21;;;;;;;;;;;;;;;;;;5095900;28;1182;-79
2022/04/09 01:27:55;;;;;;;;;;;;;;;;;;5119321;27;1180;-80
2022/04/09 01:30:20;;;;;;;;;;;;;;;;;;5093880;27;1307;-80
2022/04/09 01:32:48;;;;;;;;;;;;;;;;;;5123703;27;1186;-79
2022/04/09 01:35:14;;;;;;;;;;;;;;;;;;5096726;27;1214;-79
2022/04/09 01:37:39;;;;;;;;;;;;;;;;;;5089452;27;1369;-79
2022/04/09 01:40:05;;;;;;;;;;;;;;;;;;5113837;27;1959;-79
2022/04/09 01:42:30;;;;;;;;;;;;;;;;;;5117379;27;1182;-80
2022/04/09 01:44:56;;;;;;;;;;;;;;;;;;5127210;27;1210;-79
2022/04/09 01:47:21;;;;;;;;;;;;;;;;;;5124770;27;1167;-79
2022/04/09 01:49:46;;;;;;;;;;;;;;;;;;5126471;27;1198;-79
2022/04/09 01:52:21;;;;;;;;;;;;;;;;;;5125269;27;1221;-77
2022/04/09 01:54:46;;;;;;;;;;;;;;;;;;5126706;27;1119;-79
2022/04/09 01:57:12;;;;;;;;;;;;;;;;;;5107848;27;1293;-79
2022/04/09 01:59:37;;;;;;;;;;;;;;;;;;5096635;27;1308;-79
2022/04/09 02:02:02;;;;;;;;;;;;;;;;;;5125080;27;1893;-79
2022/04/09 02:04:27;;;;;;;;;;;;;;;;;;5098711;27;1340;-79
2022/04/09 02:06:54;;;;;;;;;;;;;;;;;;5123169;27;1052;-79
2022/04/09 02:09:19;;;;;;;;;;;;;;;;;;5093795;28;1215;-79
2022/04/09 02:11:44;;;;;;;;;;;;;;;;;;5116537;27;1190;-79
2022/04/09 02:14:10;;;;;;;;;;;;;;;;;;5113402;27;1210;-79
2022/04/09 02:16:36;;;;;;;;;;;;;;;;;;5125442;27;1190;-79
2022/04/09 02:19:02;;;;;;;;;;;;;;;;;;5125789;27;1130;-78
2022/04/09 02:21:27;;;;;;;;;;;;;;;;;;5119056;27;1913;-78
2022/04/09 02:23:53;;;;;;;;;;;;;;;;;;5124063;27;1281;-80
2022/04/09 02:26:19;;;;;;;;;;;;;;;;;;5125360;27;1362;-78
2022/04/09 02:28:47;;;;;;;;;;;;;;;;;;5129149;27;1123;-79
2022/04/09 02:31:12;;;;;;;;;;;;;;;;;;5113245;27;1237;-80
2022/04/09 02:33:38;;;;;;;;;;;;;;;;;;5115069;27;1123;-78
2022/04/09 02:36:05;;;;;;;;;;;;;;;;;;5124776;27;1167;-79
2022/04/09 02:38:30;;;;;;;;;;;;;;;;;;5116743;27;1165;-79
2022/04/09 02:40:56;;;;;;;;;;;;;;;;;;5109247;27;1984;-78
2022/04/09 02:43:22;;;;;;;;;;;;;;;;;;5103499;28;1246;-78
2022/04/09 02:45:47;;;;;;;;;;;;;;;;;;5091896;27;1336;-79
2022/04/09 02:48:12;;;;;;;;;;;;;;;;;;5093684;28;1216;-78
2022/04/09 02:50:37;;;;;;;;;;;;;;;;;;5097287;27;1307;-79
2022/04/09 02:53:03;;;;;;;;;;;;;;;;;;5115102;27;1226;-79
2022/04/09 02:55:28;;;;;;;;;;;;;;;;;;5106063;28;1155;-78
2022/04/09 02:57:55;;;;;;;;;;;;;;;;;;5106061;28;1190;-79
2022/04/09 03:00:20;;;;;;;;;;;;;;;;;;5088716;28;1893;-79
2022/04/09 03:02:46;;;;;;;;;;;;;;;;;;5112946;27;1104;-79
2022/04/09 03:05:13;;;;;;;;;;;;;;;;;;5104333;27;1375;-79
2022/04/09 03:07:39;;;;;;;;;;;;;;;;;;5112137;27;1235;-79
2022/04/09 03:10:04;;;;;;;;;;;;;;;;;;5105054;27;1337;-79
2022/04/09 03:12:29;;;;;;;;;;;;;;;;;;5110405;27;1232;-79
2022/04/09 03:15:01;;;;;;;;;;;;;;;;;;5104844;28;1230;-79
2022/04/09 03:17:26;;;;;;;;;;;;;;;;;;5093005;27;1202;-79
2022/04/09 03:19:52;;;;;;;;;;;;;;;;;;5107991;27;1917;-79
2022/04/09 03:22:17;;;;;;;;;;;;;;;;;;5118753;27;1226;-79
2022/04/09 03:24:42;;;;;;;;;;;;;;;;;;5109343;27;1300;-79
2022/04/09 03:27:08;;;;;;;;;;;;;;;;;;5100581;27;1196;-79
2022/04/09 03:29:33;;;;;;;;;;;;;;;;;;5113658;27;1306;-79
2022/04/09 03:32:00;;;;;;;;;;;;;;;;;;5085869;28;1319;-79
2022/04/09 03:34:25;;;;;;;;;;;;;;;;;;5105355;28;1392;-79
2022/04/09 03:36:50;;;;;;;;;;;;;;;;;;5120155;27;1033;-79
2022/04/09 03:39:16;;;;;;;;;;;;;;;;;;5099221;28;1384;-79
2022/04/09 03:41:41;;;;;;;;;;;;;;;;;;5122531;27;1910;-79
2022/04/09 03:44:06;;;;;;;;;;;;;;;;;;5124184;27;1095;-79
2022/04/09 03:46:31;;;;;;;;;;;;;;;;;;5123744;27;1199;-79
2022/04/09 03:48:57;;;;;;;;;;;;;;;;;;5093154;28;1316;-80
2022/04/09 03:51:22;;;;;;;;;;;;;;;;;;5102000;28;1330;-79
2022/04/09 03:53:47;;;;;;;;;;;;;;;;;;5116693;27;1254;-78
2022/04/09 03:56:12;;;;;;;;;;;;;;;;;;5111248;28;1160;-79
2022/04/09 03:58:38;;;;;;;;;;;;;;;;;;5095751;28;1204;-78
2022/04/09 04:01:03;;;;;;;;;;;;;;;;;;5110218;28;1953;-79
2022/04/09 04:03:28;;;;;;;;;;;;;;;;;;5124168;28;1369;-79
2022/04/09 04:05:53;;;;;;;;;;;;;;;;;;5118763;28;1284;-79
2022/04/09 04:08:19;;;;;;;;;;;;;;;;;;5093062;28;1191;-78
2022/04/09 04:10:44;;;;;;;;;;;;;;;;;;5109584;28;1309;-79
2022/04/09 04:13:11;;;;;;;;;;;;;;;;;;5110466;28;1265;-79
2022/04/09 04:15:36;;;;;;;;;;;;;;;;;;5124782;28;1499;-78
2022/04/09 04:18:05;;;;;;;;;;;;;;;;;;5116529;28;1187;-78
2022/04/09 04:20:30;;;;;;;;;;;;;;;;;;5117051;27;1920;-79
2022/04/09 04:22:56;;;;;;;;;;;;;;;;;;5125505;28;1292;-78
2022/04/09 04:25:21;;;;;;;;;;;;;;;;;;5103006;28;1192;-79
2022/04/09 04:27:48;;;;;;;;;;;;;;;;;;5108829;28;1151;-79
2022/04/09 04:30:14;;;;;;;;;;;;;;;;;;5116693;27;1242;-79
2022/04/09 04:32:40;;;;;;;;;;;;;;;;;;5119822;27;1257;-78
2022/04/09 04:35:06;;;;;;;;;;;;;;;;;;5090274;28;1187;-77
2022/04/09 04:37:38;;;;;;;;;;;;;;;;;;5123237;27;1246;-78
2022/04/09 04:40:07;;;;;;;;;;;;;;;;;;5106435;27;1977;-79
2022/04/09 04:42:32;;;;;;;;;;;;;;;;;;5128900;27;1491;-79
2022/04/09 04:44:58;;;;;;;;;;;;;;;;;;5118904;27;1187;-78
2022/04/09 04:47:23;;;;;;;;;;;;;;;;;;5088677;28;1344;-80
2022/04/09 04:49:48;;;;;;;;;;;;;;;;;;5104930;27;1121;-79
2022/04/09 04:52:17;;;;;;;;;;;;;;;;;;5102371;28;1203;-79
2022/04/09 04:54:43;;;;;;;;;;;;;;;;;;5088181;28;1208;-78
2022/04/09 04:57:08;;;;;;;;;;;;;;;;;;5107414;28;1372;-79
2022/04/09 04:59:34;;;;;;;;;;;;;;;;;;5119723;27;1241;-78
2022/04/09 05:01:59;;;;;;;;;;;;;;;;;;5108583;28;1886;-78
2022/04/09 05:04:27;;;;;;;;;;;;;;;;;;5109278;27;1169;-78
2022/04/09 05:06:53;;;;;;;;;;;;;;;;;;5123199;27;1090;-78
2022/04/09 05:09:19;;;;;;;;;;;;;;;;;;5113621;27;1220;-79
2022/04/09 05:11:44;;;;;;;;;;;;;;;;;;5111446;27;1238;-79
2022/04/09 05:14:10;;;;;;;;;;;;;;;;;;5109762;27;1252;-79
2022/04/09 05:16:35;;;;;;;;;;;;;;;;;;5113855;27;1140;-79
2022/04/09 05:19:00;;;;;;;;;;;;;;;;;;5107885;27;1215;-79
2022/04/09 05:21:26;;;;;;;;;;;;;;;;;;5115878;27;1959;-78
2022/04/09 05:23:51;;;;;;;;;;;;;;;;;;5106923;27;1221;-79
2022/04/09 05:26:16;;;;;;;;;;;;;;;;;;5099232;27;1194;-79
2022/04/09 05:28:41;;;;;;;;;;;;;;;;;;5109691;27;1165;-79
2022/04/09 05:31:11;;;;;;;;;;;;;;;;;;5114173;27;1216;-79
2022/04/09 05:33:37;;;;;;;;;;;;;;;;;;5120217;27;1072;-80
2022/04/09 05:36:02;;;;;;;;;;;;;;;;;;5113220;27;1188;-79
2022/04/09 05:38:28;;;;;;;;;;;;;;;;;;5125822;27;1067;-79
2022/04/09 05:40:53;;;;;;;;;;;;;;;;;;5114305;27;1917;-80
2022/04/09 05:43:19;;;;;;;;;;;;;;;;;;5124207;27;1144;-80
2022/04/09 05:45:44;;;;;;;;;;;;;;;;;;5124004;27;1414;-79
2022/04/09 05:48:10;;;;;;;;;;;;;;;;;;5109121;28;1122;-80
2022/04/09 05:50:35;;;;;;;;;;;;;;;;;;5112217;27;1289;-78
2022/04/09 05:53:01;;;;;;;;;;;;;;;;;;5109515;27;1177;-79
2022/04/09 05:55:26;;;;;;;;;;;;;;;;;;5099059;28;1328;-80
2022/04/09 05:57:54;;;;;;;;;;;;;;;;;;5120854;27;1250;-79
2022/04/09 06:00:23;;;;;;;;;;;;;;;;;;5129116;27;1964;-78
2022/04/09 06:02:49;;;;;;;;;;;;;;;;;;5133610;27;1123;-78
2022/04/09 06:05:15;;;;;;;;;;;;;;;;;;5113091;27;1170;-81
2022/04/09 06:07:40;;;;;;;;;;;;;;;;;;5110630;27;1278;-84
2022/04/09 06:10:06;;;;;;;;;;;;;;;;;;5126188;27;1125;-80
2022/04/09 06:12:32;;;;;;;;;;;;;;;;;;5096705;27;1247;-81
2022/04/09 06:14:57;;;;;;;;;;;;;;;;;;5106850;27;1278;-82
2022/04/09 06:17:26;;;;;;;;;;;;;;;;;;5121089;27;1302;-81
2022/04/09 06:19:52;;;;;;;;;;;;;;;;;;5126075;27;1870;-81
2022/04/09 06:22:18;;;;;;;;;;;;;;;;;;5115169;27;1300;-81
2022/04/09 06:24:44;;;;;;;;;;;;;;;;;;5105606;27;1212;-80
2022/04/09 06:27:13;;;;;;;;;;;;;;;;;;5118625;27;1272;-83
2022/04/09 06:29:39;;;;;;;;;;;;;;;;;;5123132;27;1194;-84
2022/04/09 06:32:05;;;;;;;;;;;;;;;;;;5129683;27;1395;-86
2022/04/09 06:34:55;;;;;;;;;;;;;;;;;;5124963;27;1207;-82
2022/04/09 06:37:53;;;;;;;;;;;;;;;;;;5122744;27;1265;-83
2022/04/09 06:40:21;;;;;;;;;;;;;;;;;;5111254;27;1905;-83
2022/04/09 06:42:49;;;;;;;;;;;;;;;;;;5124233;27;1202;-82
2022/04/09 06:45:18;;;;;;;;;;;;;;;;;;5117020;27;1083;-80
2022/04/09 06:47:43;;;;;;;;;;;;;;;;;;5129835;27;1222;-82
2022/04/09 06:50:09;;;;;;;;;;;;;;;;;;5125687;27;1131;-81
2022/04/09 06:52:35;;;;;;;;;;;;;;;;;;5123620;27;1129;-84
2022/04/09 06:55:00;;;;;;;;;;;;;;;;;;5120643;27;1151;-81
2022/04/09 06:57:25;;;;;;;;;;;;;;;;;;5123931;27;1326;-81
2022/04/09 06:59:55;;;;;;;;;;;;;;;;;;5121642;27;1964;-80
2022/04/09 07:02:24;;;;;;;;;;;;;;;;;;5123386;27;1515;-81
2022/04/09 07:04:57;;;;;;;;;;;;;;;;;;5124819;27;1198;-81
2022/04/09 07:07:42;;;;;;;;;;;;;;;;;;5116282;27;1056;-81
2022/04/09 07:10:11;;;;;;;;;;;;;;;;;;5117183;27;1480;-81
2022/04/09 07:12:37;;;;;;;;;;;;;;;;;;5125536;27;1163;-81
2022/04/09 07:15:03;;;;;;;;;;;;;;;;;;5115711;27;1245;-81
2022/04/09 07:17:29;;;;;;;;;;;;;;;;;;5110535;27;1205;-81
2022/04/09 07:19:58;;;;;;;;;;;;;;;;;;5124732;27;1881;-80
2022/04/09 07:22:30;;;;;;;;;;;;;;;;;;5117355;27;1354;-81
2022/04/09 07:24:57;;;;;;;;;;;;;;;;;;5116672;27;1520;-82
2022/04/09 07:27:41;;;;;;;;;;;;;;;;;;5106550;28;1191;-81
2022/04/09 07:30:08;;;;;;;;;;;;;;;;;;5113078;27;1169;-80
2022/04/09 07:32:33;;;;;;;;;;;;;;;;;;5122474;27;1260;-81
2022/04/09 07:34:59;;;;;;;;;;;;;;;;;;5096292;27;1428;-81
2022/04/09 07:37:36;;;;;;;;;;;;;;;;;;5107551;27;1349;-81
2022/04/09 07:40:03;;;;;;;;;;;;;;;;;;5121519;27;1910;-83
2022/04/09 07:42:28;;;;;;;;;;;;;;;;;;5109587;27;1438;-80
2022/04/09 07:44:53;;;;;;;;;;;;;;;;;;5105836;28;1305;-83
2022/04/09 07:47:27;;;;;;;;;;;;;;;;;;5114126;28;1254;-83
2022/04/09 07:49:52;;;;;;;;;;;;;;;;;;5087155;28;1305;-82
2022/04/09 07:52:24;;;;;;;;;;;;;;;;;;5109157;28;1196;-83
2022/04/09 07:54:52;;;;;;;;;;;;;;;;;;5104617;28;1281;-84
2022/04/09 07:57:18;;;;;;;;;;;;;;;;;;5105789;28;1344;-82
2022/04/09 07:59:43;;;;;;;;;;;;;;;;;;5114021;28;1210;-85
2022/04/09 08:02:11;;;;;;;;;;;;;;;;;;5096869;28;1885;-84
2022/04/09 08:04:46;;;;;;;;;;;;;;;;;;5112971;27;1174;-86
2022/04/09 08:07:34;;;;;;;;;;;;;;;;;;5116637;27;1177;-83
2022/04/09 08:09:58;;;;;;;;;;;;;;;;;;5119244;27;1253;-83
2022/04/09 08:12:27;;;;;;;;;;;;;;;;;;5114301;27;1303;-83
2022/04/09 08:14:52;;;;;;;;;;;;;;;;;;5120281;27;1219;-83
2022/04/09 08:17:20;;;;;;;;;;;;;;;;;;5095584;28;1218;-83
2022/04/09 08:19:47;;;;;;;;;;;;;;;;;;5116826;27;1231;-82
2022/04/09 08:22:31;;;;;;;;;;;;;;;;;;5118804;27;1974;-84
2022/04/09 08:24:56;;;;;;;;;;;;;;;;;;5103871;28;1230;-83
2022/04/09 08:27:28;;;;;;;;;;;;;;;;;;5126150;27;1143;-82
2022/04/09 08:29:53;;;;;;;;;;;;;;;;;;5110277;27;1391;-82
2022/04/09 08:32:19;;;;;;;;;;;;;;;;;;5116424;27;1258;-84
2022/04/09 08:34:44;;;;;;;;;;;;;;;;;;5088258;28;1199;-82
2022/04/09 08:37:17;;;;;;;;;;;;;;;;;;5100541;28;1184;-82
2022/04/09 08:39:43;;;;;;;;;;;;;;;;;;5113037;27;1428;-82
2022/04/09 08:42:12;;;;;;;;;;;;;;;;;;5097615;27;1921;-83
2022/04/09 08:44:37;;;;;;;;;;;;;;;;;;5107663;27;1116;-82
2022/04/09 08:47:04;;;;;;;;;;;;;;;;;;5112997;27;1196;-82
2022/04/09 08:49:45;;;;;;;;;;;;;;;;;;5125732;27;1163;-86
2022/04/09 08:52:22;;;;;;;;;;;;;;;;;;5120724;27;1142;-81
2022/04/09 08:54:47;;;;;;;;;;;;;;;;;;5101514;27;1229;-81
2022/04/09 08:57:14;;;;;;;;;;;;;;;;;;5109552;27;1408;-81
2022/04/09 08:59:39;;;;;;;;;;;;;;;;;;5125680;27;1095;-81
2022/04/09 09:02:04;;;;;;;;;;;;;;;;;;5122070;27;1897;-81
2022/04/09 09:04:30;;;;;;;;;;;;;;;;;;5092265;28;1347;-83
2022/04/09 09:07:16;;;;;;;;;;;;;;;;;;5091302;27;1204;-83
2022/04/09 09:09:41;;;;;;;;;;;;;;;;;;5107905;27;1192;-83
2022/04/09 09:12:07;;;;;;;;;;;;;;;;;;5113226;27;1171;-82
2022/04/09 09:14:36;;;;;;;;;;;;;;;;;;5103734;27;1262;-82
2022/04/09 09:17:02;;;;;;;;;;;;;;;;;;5116082;27;1179;-83
2022/04/09 09:19:45;;;;;;;;;;;;;;;;;;5126301;27;1194;-83
2022/04/09 09:22:18;;;;;;;;;;;;;;;;;;5126536;27;1948;-83
2022/04/09 09:24:43;;;;;;;;;;;;;;;;;;5109692;27;1338;-83
2022/04/09 09:27:09;;;;;;;;;;;;;;;;;;5106625;28;1187;-84
2022/04/09 09:29:36;;;;;;;;;;;;;;;;;;5103185;28;1400;-83
2022/04/09 09:32:06;;;;;;;;;;;;;;;;;;5107051;28;1203;-83
2022/04/09 09:34:33;;;;;;;;;;;;;;;;;;5096314;27;1195;-83
2022/04/09 09:36:58;;;;;;;;;;;;;;;;;;5103990;27;1140;-82
2022/04/09 09:39:25;;;;;;;;;;;;;;;;;;5123555;27;1159;-83
2022/04/09 09:41:57;;;;;;;;;;;;;;;;;;5125005;27;1918;-82
2022/04/09 09:44:24;;;;;;;;;;;;;;;;;;5126567;27;1119;-81
2022/04/09 09:46:50;;;;;;;;;;;;;;;;;;5124009;27;1400;-81
2022/04/09 09:49:17;;;;;;;;;;;;;;;;;;5124165;27;1339;-83
2022/04/09 09:51:45;;;;;;;;;;;;;;;;;;5121966;27;1213;-83
2022/04/09 09:54:12;;;;;;;;;;;;;;;;;;5105564;27;1479;-83
2022/04/09 09:56:42;;;;;;;;;;;;;;;;;;5123355;27;1313;-82
2022/04/09 09:59:08;;;;;;;;;;;;;;;;;;5120876;27;1195;-82
2022/04/09 10:01:41;;;;;;;;;;;;;;;;;;5124509;27;1961;-83
2022/04/09 10:04:07;;;;;;;;;;;;;;;;;;5132142;27;1131;-83
2022/04/09 10:06:35;;;;;;;;;;;;;;;;;;5116870;27;1206;-82
2022/04/09 10:09:01;;;;;;;;;;;;;;;;;;5106564;27;1189;-82
2022/04/09 10:11:28;;;;;;;;;;;;;;;;;;5127725;27;1222;-83
2022/04/09 10:13:57;;;;;;;;;;;;;;;;;;5115076;27;1115;-84
2022/04/09 10:16:23;;;;;;;;;;;;;;;;;;5119607;27;1350;-83
2022/04/09 10:18:49;;;;;;;;;;;;;;;;;;5108339;27;1197;-83
2022/04/09 10:21:18;;;;;;;;;;;;;;;;;;5117570;27;1897;-82
2022/04/09 10:23:43;;;;;;;;;;;;;;;;;;5103046;28;1336;-82
2022/04/09 10:26:09;;;;;;;;;;;;;;;;;;5121802;27;1180;-82
2022/04/09 10:28:36;;;;;;;;;;;;;;;;;;5111531;27;1205;-82
2022/04/09 10:31:03;;;;;;;;;;;;;;;;;;5126112;27;1229;-83
2022/04/09 10:33:33;;;;;;;;;;;;;;;;;;5111282;27;1218;-84
2022/04/09 10:36:02;;;;;;;;;;;;;;;;;;5114287;27;1195;-82
2022/04/09 10:38:27;;;;;;;;;;;;;;;;;;5105063;27;1377;-83
2022/04/09 10:40:55;;;;;;;;;;;;;;;;;;5104211;27;1973;-83
2022/04/09 10:43:26;;;;;;;;;;;;;;;;;;5120758;27;1253;-82
2022/04/09 10:46:00;;;;;;;;;;;;;;;;;;5118017;27;1249;-82
2022/04/09 10:48:34;;;;;;;;;;;;;;;;;;5114610;27;1199;-83
2022/04/09 10:51:00;;;;;;;;;;;;;;;;;;5113686;27;1166;-83
2022/04/09 10:53:26;;;;;;;;;;;;;;;;;;5115223;27;1352;-81
2022/04/09 10:56:08;;;;;;;;;;;;;;;;;;5116415;27;1056;-83
2022/04/09 10:58:54;;;;;;;;;;;;;;;;;;5117355;27;1199;-83
2022/04/09 11:01:38;;;;;;;;;;;;;;;;;;5115486;27;1953;-83
2022/04/09 11:04:41;;;;;;;;;;;;;;;;;;5108585;27;1257;-82
2022/04/09 11:07:07;;;;;;;;;;;;;;;;;;5089810;27;1061;-83
2022/04/09 11:09:54;;;;;;;;;;;;;;;;;;5104629;27;1195;-82
2022/04/09 11:12:21;;;;;;;;;;;;;;;;;;5106904;27;1254;-81
2022/04/09 11:14:52;;;;;;;;;;;;;;;;;;5121405;27;1249;-82
2022/04/09 11:17:25;;;;;;;;;;;;;;;;;;5117557;27;1461;-81
2022/04/09 11:19:51;;;;;;;;;;;;;;;;;;5114344;27;1284;-81
2022/04/09 11:22:24;;;;;;;;;;;;;;;;;;5106446;27;1890;-82
2022/04/09 11:24:53;;;;;;;;;;;;;;;;;;5113243;27;1196;-81
2022/04/09 11:27:18;;;;;;;;;;;;;;;;;;5110511;27;1163;-83
2022/04/09 11:29:44;;;;;;;;;;;;;;;;;;5097468;27;1262;-82
2022/04/09 11:32:17;;;;;;;;;;;;;;;;;;5114895;27;1139;-81
2022/04/09 11:34:45;;;;;;;;;;;;;;;;;;5123276;27;1257;-81
2022/04/09 11:37:16;;;;;;;;;;;;;;;;;;5124509;27;1239;-82
2022/04/09 11:39:45;;;;;;;;;;;;;;;;;;5102394;28;1372;-84
2022/04/09 11:42:13;;;;;;;;;;;;;;;;;;5111145;27;1967;-82
2022/04/09 11:44:42;;;;;;;;;;;;;;;;;;5105311;28;1245;-83
2022/04/09 11:47:09;;;;;;;;;;;;;;;;;;5103742;28;1171;-83
2022/04/09 11:49:36;;;;;;;;;;;;;;;;;;5106650;28;1245;-82
2022/04/09 11:52:02;;;;;;;;;;;;;;;;;;5112553;28;1179;-82
2022/04/09 11:54:31;;;;;;;;;;;;;;;;;;5085818;28;1207;-83
2022/04/09 11:56:56;;;;;;;;;;;;;;;;;;5109493;28;1096;-83
2022/04/09 11:59:22;;;;;;;;;;;;;;;;;;5129253;27;1151;-81
2022/04/09 12:01:47;;;;;;;;;;;;;;;;;;5125124;28;1979;-81
2022/04/09 12:04:16;;;;;;;;;;;;;;;;;;5113864;27;1143;-82
2022/04/09 12:06:44;;;;;;;;;;;;;;;;;;5108506;28;1267;-82
2022/04/09 12:09:10;;;;;;;;;;;;;;;;;;5123336;28;1383;-82
2022/04/09 12:11:39;;;;;;;;;;;;;;;;;;5126418;28;1246;-83
2022/04/09 12:14:13;;;;;;;;;;;;;;;;;;5123699;28;1245;-82
2022/04/09 12:16:39;;;;;;;;;;;;;;;;;;5127354;28;1327;-83
2022/04/09 12:19:07;;;;;;;;;;;;;;;;;;5127263;27;1071;-82
2022/04/09 12:21:35;;;;;;;;;;;;;;;;;;5117570;27;1914;-82
2022/04/09 12:24:00;;;;;;;;;;;;;;;;;;5123236;28;1297;-83
2022/04/09 12:26:26;;;;;;;;;;;;;;;;;;5129574;28;1213;-83
2022/04/09 12:29:08;;;;;;;;;;;;;;;;;;5117980;27;1158;-82
2022/04/09 12:31:33;;;;;;;;;;;;;;;;;;5126029;28;1182;-81
2022/04/09 12:33:59;;;;;;;;;;;;;;;;;;5113734;28;1273;-85
2022/04/09 12:36:24;;;;;;;;;;;;;;;;;;5113153;28;1132;-83
2022/04/09 12:38:58;;;;;;;;;;;;;;;;;;5096361;28;1482;-82
2022/04/09 12:41:23;;;;;;;;;;;;;;;;;;5119496;28;1909;-83
2022/04/09 12:43:57;;;;;;;;;;;;;;;;;;5115049;27;1210;-79
2022/04/09 12:46:22;;;;;;;;;;;;;;;;;;5114442;28;1258;-84
2022/04/09 12:48:49;;;;;;;;;;;;;;;;;;5127382;28;1211;-84
2022/04/09 12:51:18;;;;;;;;;;;;;;;;;;5129044;27;1347;-83
2022/04/09 12:53:43;;;;;;;;;;;;;;;;;;5121412;27;1210;-85
2022/04/09 12:56:09;;;;;;;;;;;;;;;;;;5091697;28;1185;-83
2022/04/09 12:58:35;;;;;;;;;;;;;;;;;;5113383;27;1155;-84
2022/04/09 13:01:01;;;;;;;;;;;;;;;;;;5119757;27;1968;-83
2022/04/09 13:03:26;;;;;;;;;;;;;;;;;;5127630;27;1210;-83
2022/04/09 13:05:54;;;;;;;;;;;;;;;;;;5130397;27;1219;-82
2022/04/09 13:08:19;;;;;;;;;;;;;;;;;;5121068;27;1158;-80
2022/04/09 13:10:45;;;;;;;;;;;;;;;;;;5126040;27;1140;-86
2022/04/09 13:13:10;;;;;;;;;;;;;;;;;;5107393;27;1134;-82
2022/04/09 13:15:35;;;;;;;;;;;;;;;;;;5108577;28;1365;-80
2022/04/09 13:18:07;;;;;;;;;;;;;;;;;;5119467;28;1164;-79
2022/04/09 13:20:32;;;;;;;;;;;;;;;;;;5129195;27;1933;-78
2022/04/09 13:22:57;;;;;;;;;;;;;;;;;;5124052;27;1292;-80
2022/04/09 13:25:22;;;;;;;;;;;;;;;;;;5127911;27;1181;-82
2022/04/09 13:27:49;;;;;;;;;;;;;;;;;;5126899;27;1155;-81
2022/04/09 13:30:15;;;;;;;;;;;;;;;;;;5096623;27;1188;-79
2022/04/09 13:32:40;;;;;;;;;;;;;;;;;;5127059;27;1170;-78
2022/04/09 13:35:06;;;;;;;;;;;;;;;;;;5114501;27;1089;-77
2022/04/09 13:37:33;;;;;;;;;;;;;;;;;;5121669;27;1414;-78
2022/04/09 13:39:58;;;;;;;;;;;;;;;;;;5112244;27;1273;-79
2022/04/09 13:42:23;;;;;;;;;;;;;;;;;;5108945;28;1977;-78
2022/04/09 13:44:49;;;;;;;;;;;;;;;;;;5123593;27;1207;-79
2022/04/09 13:47:14;;;;;;;;;;;;;;;;;;5122319;27;1265;-84
2022/04/09 13:49:45;;;;;;;;;;;;;;;;;;5116281;27;1278;-88
2022/04/09 13:52:13;;;;;;;;;;;;;;;;;;5095003;28;1207;-85
2022/04/09 13:54:39;;;;;;;;;;;;;;;;;;5127194;27;1148;-86
2022/04/09 13:57:05;;;;;;;;;;;;;;;;;;5095365;28;1213;-84
2022/04/09 13:59:30;;;;;;;;;;;;;;;;;;5114310;27;1221;-83
2022/04/09 14:01:59;;;;;;;;;;;;;;;;;;5112003;27;1905;-83
2022/04/09 14:04:28;;;;;;;;;;;;;;;;;;5117305;27;1131;-85
2022/04/09 14:06:57;;;;;;;;;;;;;;;;;;5122723;27;1405;-84
2022/04/09 14:09:22;;;;;;;;;;;;;;;;;;5106661;27;1261;-85
2022/04/09 14:11:47;;;;;;;;;;;;;;;;;;5091516;28;1349;-84
2022/04/09 14:14:15;;;;;;;;;;;;;;;;;;5089882;28;1305;-84
2022/04/09 14:16:42;;;;;;;;;;;;;;;;;;5106768;28;1252;-84
2022/04/09 14:19:07;;;;;;;;;;;;;;;;;;5106394;28;1324;-85
2022/04/09 14:21:33;;;;;;;;;;;;;;;;;;5108830;28;1961;-83
2022/04/09 14:24:01;;;;;;;;;;;;;;;;;;5109007;27;1422;-83
2022/04/09 14:26:26;;;;;;;;;;;;;;;;;;5127791;27;1291;-85
2022/04/09 14:28:52;;;;;;;;;;;;;;;;;;5114814;27;1218;-83
2022/04/09 14:31:17;;;;;;;;;;;;;;;;;;5093613;27;1352;-85
2022/04/09 14:33:43;;;;;;;;;;;;;;;;;;5110915;27;1203;-84
2022/04/09 14:36:08;;;;;;;;;;;;;;;;;;5114888;27;1322;-84
2022/04/09 14:38:34;;;;;;;;;;;;;;;;;;5125407;27;1123;-84
2022/04/09 14:41:00;;;;;;;;;;;;;;;;;;5126395;27;1974;-85
2022/04/09 14:43:25;;;;;;;;;;;;;;;;;;5118625;27;1359;-74
2022/04/09 14:45:50;;;;;;;;;;;;;;;;;;5102315;27;1190;-74
2022/04/09 14:48:16;;;;;;;;;;;;;;;;;;5101683;27;1009;-72
2022/04/09 14:50:41;;;;;;;;;;;;;;;;;;5099323;27;1182;-72
2022/04/09 14:53:07;;;;;;;;;;;;;;;;;;5117362;27;1183;-72
2022/04/09 14:55:32;;;;;;;;;;;;;;;;;;5116266;27;1412;-72
2022/04/09 14:57:58;;;;;;;;;;;;;;;;;;5119488;27;1127;-71
2022/04/09 15:00:23;;;;;;;;;;;;;;;;;;5112952;27;1949;-72
2022/04/09 15:02:48;;;;;;;;;;;;;;;;;;5118675;27;1163;-72
2022/04/09 15:05:14;;;;;;;;;;;;;;;;;;5111574;27;1317;-72
2022/04/09 15:07:43;;;;;;;;;;;;;;;;;;5095296;28;1206;-73
2022/04/09 15:10:09;;;;;;;;;;;;;;;;;;5116857;27;1067;-73
2022/04/09 15:12:34;;;;;;;;;;;;;;;;;;5121247;27;1123;-73
2022/04/09 15:15:03;;;;;;;;;;;;;;;;;;5116094;27;1361;-73
2022/04/09 15:17:28;;;;;;;;;;;;;;;;;;5119382;27;1214;-73
2022/04/09 15:19:53;;;;;;;;;;;;;;;;;;5098822;27;1472;-73
2022/04/09 15:22:19;;;;;;;;;;;;;;;;;;5098310;27;2054;-73
2022/04/09 15:24:44;;;;;;;;;;;;;;;;;;5089865;28;1126;-73
2022/04/09 15:27:13;;;;;;;;;;;;;;;;;;5100469;27;1206;-73
2022/04/09 15:29:39;;;;;;;;;;;;;;;;;;5117548;27;1190;-73
2022/04/09 15:32:06;;;;;;;;;;;;;;;;;;5115231;27;1151;-74
2022/04/09 15:34:32;;;;;;;;;;;;;;;;;;5117653;27;1354;-73
2022/04/09 15:36:57;;;;;;;;;;;;;;;;;;5096022;27;1215;-73
2022/04/09 15:39:23;;;;;;;;;;;;;;;;;;5112091;27;1165;-73
2022/04/09 15:41:50;;;;;;;;;;;;;;;;;;5118852;27;1930;-73
2022/04/09 15:44:15;;;;;;;;;;;;;;;;;;5114915;27;1111;-74
2022/04/09 15:46:40;;;;;;;;;;;;;;;;;;5120627;27;1174;-73
2022/04/09 15:49:06;;;;;;;;;;;;;;;;;;5119356;27;1139;-73
2022/04/09 15:51:31;;;;;;;;;;;;;;;;;;5114950;27;1392;-74
2022/04/09 15:54:00;;;;;;;;;;;;;;;;;;5116430;28;1100;-74
2022/04/09 15:56:25;;;;;;;;;;;;;;;;;;5112445;28;1235;-72
2022/04/09 15:58:51;;;;;;;;;;;;;;;;;;5118201;28;1210;-73
2022/04/09 16:01:16;;;;;;;;;;;;;;;;;;5117553;28;1935;-72
2022/04/09 16:03:42;;;;;;;;;;;;;;;;;;5094418;28;1170;-72
2022/04/09 16:06:07;;;;;;;;;;;;;;;;;;5101510;28;1308;-73
2022/04/09 16:08:32;;;;;;;;;;;;;;;;;;5098630;28;1323;-73
2022/04/09 16:11:05;;;;;;;;;;;;;;;;;;5110852;28;1136;-72
2022/04/09 16:13:31;;;;;;;;;;;;;;;;;;5118650;28;1274;-72
2022/04/09 16:15:56;;;;;;;;;;;;;;;;;;5119433;27;1095;-73
2022/04/09 16:18:22;;;;;;;;;;;;;;;;;;5106047;27;1202;-72
2022/04/09 16:20:47;;;;;;;;;;;;;;;;;;5102323;28;1956;-73
2022/04/09 16:23:13;;;;;;;;;;;;;;;;;;5112464;28;1301;-72
2022/04/09 16:25:38;;;;;;;;;;;;;;;;;;5117757;27;1142;-74
2022/04/09 16:28:08;;;;;;;;;;;;;;;;;;5121545;27;1306;-73
2022/04/09 16:30:34;;;;;;;;;;;;;;;;;;5104968;27;1483;-73
2022/04/09 16:32:59;;;;;;;;;;;;;;;;;;5120909;27;1069;-73
2022/04/09 16:35:24;;;;;;;;;;;;;;;;;;5119597;27;1134;-72
2022/04/09 16:37:49;;;;;;;;;;;;;;;;;;5102444;27;1244;-73
2022/04/09 16:40:15;;;;;;;;;;;;;;;;;;5109383;27;1198;-71
2022/04/09 16:42:41;;;;;;;;;;;;;;;;;;5103579;28;1159;-72
2022/04/09 16:45:07;;;;;;;;;;;;;;;;;;5101507;28;1120;-72
2022/04/09 16:47:32;;;;;;;;;;;;;;;;;;5101258;27;1120;-72
2022/04/09 16:49:57;;;;;;;;;;;;;;;;;;5122103;27;1219;-72
2022/04/09 16:52:22;;;;;;;;;;;;;;;;;;5114525;27;1300;-72
2022/04/09 16:54:48;;;;;;;;;;;;;;;;;;5089955;27;1422;-73
2022/04/09 16:57:14;;;;;;;;;;;;;;;;;;5084523;28;1419;-73
2022/04/09 16:59:39;;;;;;;;;;;;;;;;;;5114594;27;1194;-72
2022/04/09 17:02:11;;;;;;;;;;;;;;;;;;5123220;27;1952;-73